Time;durP1;ratioP1;P1;durP2;ratioP2;P2;SDS_P1;SDS_P2;PMS_P1;PMS_P2;Temp;Humidity;BMP_temperature;BMP_pressure;BME280_temperature;BME280_humidity;BME280_pressure;Samples;Min_cycle;Max_cycle;Signal;HPM_P1;HPM_P2
2021/07/05 00:01:09;;;;;;;8.05;1.42;;;16.20;99.90;;;;;;4988138;28;20113;-76
2021/07/05 00:03:34;;;;;;;4.47;1.13;;;16.20;99.90;;;;;;4988626;28;20054;-75
2021/07/05 00:06:00;;;;;;;4.50;1.45;;;16.20;99.90;;;;;;4988772;28;20050;-76
2021/07/05 00:08:26;;;;;;;5.30;1.58;;;16.20;99.90;;;;;;4989068;28;20022;-75
2021/07/05 00:10:51;;;;;;;2.00;1.45;;;16.10;99.90;;;;;;4986974;28;20024;-74
2021/07/05 00:13:17;;;;;;;8.85;1.67;;;16.00;99.90;;;;;;4988733;28;20029;-76
2021/07/05 00:15:43;;;;;;;6.28;1.40;;;16.10;99.90;;;;;;4988573;28;20091;-76
2021/07/05 00:18:10;;;;;;;4.28;1.27;;;16.20;99.90;;;;;;4988483;28;20030;-75
2021/07/05 00:20:40;;;;;;;3.13;1.00;;;16.20;99.90;;;;;;4989331;28;20026;-76
2021/07/05 00:23:07;;;;;;;7.05;1.48;;;16.20;99.90;;;;;;4991845;28;20022;-75
2021/07/05 00:25:33;;;;;;;5.93;1.38;;;16.20;99.90;;;;;;4991546;28;20034;-74
2021/07/05 00:27:58;;;;;;;4.78;1.30;;;16.30;99.90;;;;;;4991825;28;20396;-75
2021/07/05 00:30:25;;;;;;;3.35;1.30;;;16.20;99.90;;;;;;4990171;28;20027;-75
2021/07/05 00:32:51;;;;;;;5.63;1.48;;;16.10;99.90;;;;;;4991463;28;20134;-76
2021/07/05 00:35:19;;;;;;;4.85;1.55;;;16.20;99.90;;;;;;4990286;28;20100;-75
2021/07/05 00:37:45;;;;;;;4.95;1.50;;;16.20;99.90;;;;;;5059069;28;20026;-74
2021/07/05 00:40:12;;;;;;;2.45;1.50;;;16.20;99.90;;;;;;4989983;28;20065;-76
2021/07/05 00:42:38;;;;;;;7.90;1.50;;;16.20;99.90;;;;;;4991745;28;20034;-74
2021/07/05 00:45:06;;;;;;;1.88;1.40;;;16.10;99.90;;;;;;5058956;28;20031;-75
2021/07/05 00:47:33;;;;;;;6.50;1.33;;;16.10;99.90;;;;;;4991534;28;20687;-75
2021/07/05 00:49:58;;;;;;;4.95;1.38;;;16.10;99.90;;;;;;4989734;28;20602;-75
2021/07/05 00:52:24;;;;;;;10.32;1.52;;;16.00;99.90;;;;;;4991136;28;20066;-74
2021/07/05 00:54:50;;;;;;;1.85;1.20;;;16.10;99.90;;;;;;4991391;28;20038;-75
2021/07/05 00:57:24;;;;;;;6.90;1.30;;;16.10;99.90;;;;;;4990185;28;20088;-74
2021/07/05 00:59:55;;;;;;;7.15;1.55;;;16.10;99.90;;;;;;4990565;28;20022;-74
2021/07/05 01:02:22;;;;;;;3.40;1.13;;;16.10;99.90;;;;;;4991262;28;20084;-75
2021/07/05 01:04:49;;;;;;;7.68;1.55;;;16.00;99.90;;;;;;4990190;28;20041;-75
2021/07/05 01:07:15;;;;;;;3.40;1.27;;;16.00;99.90;;;;;;4991057;28;20014;-72
2021/07/05 01:09:42;;;;;;;6.85;1.38;;;15.90;99.90;;;;;;4990409;28;20476;-73
2021/07/05 01:12:09;;;;;;;3.70;1.60;;;16.00;99.90;;;;;;4989875;28;20022;-75
2021/07/05 01:14:35;;;;;;;4.72;1.38;;;16.00;99.90;;;;;;4991065;28;20389;-74
2021/07/05 01:17:02;;;;;;;1.52;1.38;;;15.90;99.90;;;;;;4991182;28;20034;-75
2021/07/05 01:19:28;;;;;;;2.30;1.50;;;15.80;99.90;;;;;;4990338;28;20053;-74
2021/07/05 01:21:55;;;;;;;5.47;1.60;;;15.80;99.90;;;;;;4989740;28;20018;-73
2021/07/05 01:24:21;;;;;;;6.95;1.63;;;15.80;99.90;;;;;;4991216;28;20049;-74
2021/07/05 01:26:47;;;;;;;3.83;2.42;;;15.80;99.90;;;;;;4991079;28;20027;-74
2021/07/05 01:29:12;;;;;;;4.72;1.80;;;15.70;99.90;;;;;;4991007;28;20049;-75
2021/07/05 01:31:38;;;;;;;5.50;1.70;;;15.70;99.90;;;;;;4989311;28;20034;-75
2021/07/05 01:34:04;;;;;;;4.45;1.58;;;15.60;99.90;;;;;;4975627;28;20023;-74
2021/07/05 01:36:30;;;;;;;7.88;2.17;;;15.50;99.90;;;;;;4971024;28;20038;-76
2021/07/05 01:38:57;;;;;;;7.70;2.95;;;15.50;99.90;;;;;;4971439;28;20114;-73
2021/07/05 01:41:23;;;;;;;5.35;1.90;;;15.50;99.90;;;;;;4970891;28;20030;-73
2021/07/05 01:43:50;;;;;;;5.00;2.05;;;15.40;99.90;;;;;;4971265;28;20019;-74
2021/07/05 01:46:16;;;;;;;1.90;1.77;;;15.40;99.90;;;;;;4983208;28;20109;-76
2021/07/05 01:48:42;;;;;;;4.03;1.77;;;15.30;99.90;;;;;;4990814;28;20033;-73
2021/07/05 01:51:09;;;;;;;6.15;1.90;;;15.30;99.90;;;;;;4988293;28;20030;-74
2021/07/05 01:53:35;;;;;;;2.83;1.60;;;15.30;99.90;;;;;;5057289;28;20361;-74
2021/07/05 01:56:01;;;;;;;9.85;2.15;;;15.20;99.90;;;;;;4988913;28;20038;-73
2021/07/05 01:58:26;;;;;;;9.07;2.25;;;15.20;99.90;;;;;;4990308;28;20575;-73
2021/07/05 02:00:53;;;;;;;12.70;2.17;;;15.30;99.90;;;;;;5056888;28;20061;-74
2021/07/05 02:03:19;;;;;;;3.88;1.98;;;15.30;99.90;;;;;;4990336;28;20014;-75
2021/07/05 02:05:48;;;;;;;5.30;1.98;;;15.30;99.90;;;;;;4990173;28;20373;-74
2021/07/05 02:08:15;;;;;;;3.85;2.05;;;15.30;99.90;;;;;;4990210;28;20049;-74
2021/07/05 02:10:43;;;;;;;6.75;2.03;;;15.30;99.90;;;;;;4988415;28;20049;-73
2021/07/05 02:13:13;;;;;;;3.63;2.20;;;15.30;99.90;;;;;;4989867;28;20033;-72
2021/07/05 02:15:40;;;;;;;4.95;1.90;;;15.30;99.90;;;;;;5055670;28;20033;-73
2021/07/05 02:18:06;;;;;;;6.57;2.00;;;15.40;99.90;;;;;;4990134;28;20018;-74
2021/07/05 02:20:32;;;;;;;6.93;1.77;;;15.40;99.90;;;;;;4989537;28;20120;-74
2021/07/05 02:23:00;;;;;;;4.05;1.83;;;15.40;99.90;;;;;;4990124;28;20022;-74
2021/07/05 02:25:29;;;;;;;6.40;1.70;;;15.40;99.90;;;;;;4989791;28;20022;-72
2021/07/05 02:27:57;;;;;;;4.90;2.00;;;15.30;99.90;;;;;;4988387;28;20476;-73
2021/07/05 02:30:24;;;;;;;5.15;2.00;;;15.30;99.90;;;;;;4989166;28;20060;-74
2021/07/05 02:32:50;;;;;;;7.15;1.98;;;15.40;99.90;;;;;;4989895;28;20030;-74
2021/07/05 02:35:19;;;;;;;4.47;1.80;;;15.30;99.90;;;;;;4988264;28;20030;-72
2021/07/05 02:37:48;;;;;;;3.55;1.75;;;15.40;99.90;;;;;;4989884;28;20029;-74
2021/07/05 02:40:16;;;;;;;6.60;1.75;;;15.40;99.90;;;;;;5055969;28;20392;-74
2021/07/05 02:42:43;;;;;;;3.42;2.10;;;15.40;99.90;;;;;;4989659;28;20026;-74
2021/07/05 02:45:15;;;;;;;5.40;1.98;;;15.40;99.90;;;;;;4989170;28;20021;-75
2021/07/05 02:47:41;;;;;;;5.25;2.22;;;15.30;99.90;;;;;;4998551;28;20046;-73
2021/07/05 02:50:08;;;;;;;9.02;2.40;;;15.40;99.90;;;;;;5012561;28;20044;-69
2021/07/05 02:52:34;;;;;;;12.85;2.72;;;15.30;99.90;;;;;;5064368;28;20026;-73
2021/07/05 02:55:00;;;;;;;4.97;1.90;;;15.20;99.90;;;;;;4991200;28;20481;-74
2021/07/05 02:57:29;;;;;;;4.20;2.08;;;15.20;99.90;;;;;;4989941;28;20049;-74
2021/07/05 03:00:02;;;;;;;2.95;1.98;;;15.20;99.90;;;;;;5056735;28;20026;-75
2021/07/05 03:02:32;;;;;;;2.38;1.95;;;15.30;99.90;;;;;;4990490;28;20421;-74
2021/07/05 03:04:59;;;;;;;6.45;2.35;;;15.30;99.90;;;;;;4989901;28;20018;-74
2021/07/05 03:07:24;;;;;;;4.55;1.90;;;15.30;99.90;;;;;;4989512;28;20026;-73
2021/07/05 03:09:50;;;;;;;6.07;2.13;;;15.30;99.90;;;;;;4988805;28;20034;-74
2021/07/05 03:12:16;;;;;;;10.00;2.58;;;15.40;99.90;;;;;;4988109;28;20026;-74
2021/07/05 03:14:41;;;;;;;3.20;2.92;;;15.40;99.90;;;;;;4989403;28;20121;-74
2021/07/05 03:17:07;;;;;;;5.72;2.42;;;15.40;99.90;;;;;;4989455;28;20034;-75
2021/07/05 03:19:33;;;;;;;6.97;2.80;;;15.30;99.90;;;;;;4987318;28;20038;-73
2021/07/05 03:21:58;;;;;;;6.18;2.53;;;15.30;99.90;;;;;;4989461;28;20026;-75
2021/07/05 03:24:24;;;;;;;5.22;2.50;;;15.40;99.90;;;;;;4987909;28;20018;-74
2021/07/05 03:26:50;;;;;;;2.35;2.10;;;15.20;99.90;;;;;;4989437;28;20037;-75
2021/07/05 03:29:16;;;;;;;6.60;2.38;;;15.20;99.90;;;;;;4989380;28;20099;-75
2021/07/05 03:31:42;;;;;;;6.90;2.33;;;15.10;99.90;;;;;;4988673;28;20464;-75
2021/07/05 03:34:08;;;;;;;2.45;2.10;;;15.10;99.90;;;;;;4988943;28;20022;-75
2021/07/05 03:36:33;;;;;;;3.08;2.05;;;15.20;99.90;;;;;;5001505;23;20045;-73
2021/07/05 03:38:59;;;;;;;3.35;2.13;;;15.30;99.90;;;;;;4985512;28;20059;-72
2021/07/05 03:41:24;;;;;;;3.33;1.92;;;15.30;99.90;;;;;;4968872;28;20435;-73
2021/07/05 03:43:50;;;;;;;5.05;2.92;;;15.20;99.90;;;;;;4969458;28;20019;-72
2021/07/05 03:46:16;;;;;;;8.07;2.33;;;15.20;99.90;;;;;;4957741;28;20054;-73
2021/07/05 03:48:41;;;;;;;3.42;1.90;;;15.10;99.90;;;;;;4985663;28;20057;-74
2021/07/05 03:51:08;;;;;;;6.85;2.30;;;15.20;99.90;;;;;;4986738;28;20026;-74
2021/07/05 03:53:33;;;;;;;6.88;2.33;;;15.20;99.90;;;;;;4987031;28;20041;-74
2021/07/05 03:55:59;;;;;;;2.55;1.88;;;15.20;99.90;;;;;;4989636;28;20396;-74
2021/07/05 03:58:25;;;;;;;1.83;1.73;;;15.10;99.90;;;;;;4996042;28;20816;-73
2021/07/05 04:00:50;;;;;;;5.47;2.08;;;15.20;99.90;;;;;;4994408;28;20030;-74
2021/07/05 04:03:17;;;;;;;7.82;2.25;;;15.30;99.90;;;;;;4991703;28;20019;-75
2021/07/05 04:05:42;;;;;;;2.60;1.98;;;15.30;99.90;;;;;;4991231;28;20026;-74
2021/07/05 04:08:08;;;;;;;2.10;1.75;;;15.30;99.90;;;;;;4990901;28;20540;-74
2021/07/05 04:10:34;;;;;;;2.55;1.85;;;15.40;99.90;;;;;;4991497;28;20086;-73
2021/07/05 04:13:04;;;;;;;6.40;2.00;;;15.50;99.90;;;;;;4991849;28;20509;-75
2021/07/05 04:15:30;;;;;;;4.35;2.13;;;15.40;99.90;;;;;;4991854;28;20458;-75
2021/07/05 04:17:56;;;;;;;9.70;3.22;;;15.50;99.90;;;;;;4991080;28;20039;-73
2021/07/05 04:20:23;;;;;;;5.28;2.67;;;15.50;99.90;;;;;;4973084;28;20035;-73
2021/07/05 04:22:49;;;;;;;5.00;2.28;;;15.60;99.90;;;;;;4991122;28;20365;-72
2021/07/05 04:25:17;;;;;;;3.60;2.00;;;15.70;99.90;;;;;;4973823;28;20019;-73
2021/07/05 04:27:44;;;;;;;3.55;2.10;;;15.80;99.90;;;;;;4991042;28;20023;-74
2021/07/05 04:30:10;;;;;;;6.78;1.90;;;15.70;99.90;;;;;;4989806;28;20025;-71
2021/07/05 04:32:37;;;;;;;2.30;2.08;;;15.70;99.90;;;;;;4991424;28;20483;-72
2021/07/05 04:35:06;;;;;;;1.77;1.67;;;15.70;99.90;;;;;;4991461;28;20022;-74
2021/07/05 04:37:32;;;;;;;2.92;2.13;;;15.70;99.90;;;;;;4990915;28;20186;-73
2021/07/05 04:39:57;;;;;;;2.40;2.10;;;15.90;99.90;;;;;;4990474;28;20026;-72
2021/07/05 04:42:23;;;;;;;2.03;1.75;;;15.90;99.90;;;;;;4991431;28;20022;-73
2021/07/05 04:44:50;;;;;;;3.15;1.75;;;15.90;99.90;;;;;;4990879;28;20564;-73
2021/07/05 04:47:16;;;;;;;2.17;1.63;;;15.90;99.90;;;;;;4991549;28;20093;-75
2021/07/05 04:49:42;;;;;;;3.88;1.73;;;16.00;99.90;;;;;;4991308;28;20136;-74
2021/07/05 04:52:08;;;;;;;4.00;1.65;;;16.20;99.90;;;;;;4991646;28;20037;-74
2021/07/05 04:54:33;;;;;;;2.63;1.73;;;16.30;99.90;;;;;;4996001;28;20034;-73
2021/07/05 04:56:59;;;;;;;4.90;1.40;;;16.30;99.90;;;;;;5003453;28;20056;-74
2021/07/05 04:59:25;;;;;;;2.47;1.10;;;16.40;99.90;;;;;;5005607;28;20094;-72
2021/07/05 05:01:51;;;;;;;3.10;1.20;;;16.50;99.90;;;;;;5007754;28;20053;-74
2021/07/05 05:04:17;;;;;;;2.63;1.40;;;16.50;99.90;;;;;;4991756;28;20468;-73
2021/07/05 05:06:43;;;;;;;4.45;1.30;;;16.60;99.90;;;;;;4991218;28;20027;-73
2021/07/05 05:09:10;;;;;;;3.78;1.50;;;16.80;99.90;;;;;;4990712;28;20063;-73
2021/07/05 05:11:36;;;;;;;6.47;1.50;;;16.80;99.90;;;;;;4991667;28;20480;-73
2021/07/05 05:14:02;;;;;;;4.97;1.45;;;16.80;99.90;;;;;;4993786;28;20035;-73
2021/07/05 05:16:28;;;;;;;8.13;2.03;;;16.90;99.90;;;;;;4990270;28;20033;-72
2021/07/05 05:18:54;;;;;;;3.13;1.20;;;17.00;99.90;;;;;;4990582;28;20097;-72
2021/07/05 05:21:19;;;;;;;5.70;1.88;;;17.00;99.90;;;;;;4972647;28;20500;-72
2021/07/05 05:23:45;;;;;;;6.50;1.65;;;16.90;99.90;;;;;;4990982;28;20026;-72
2021/07/05 05:26:11;;;;;;;5.97;1.23;;;16.90;99.90;;;;;;4990425;28;20041;-72
2021/07/05 05:28:36;;;;;;;4.80;1.60;;;17.00;99.90;;;;;;4989834;28;20434;-73
2021/07/05 05:31:03;;;;;;;2.90;1.42;;;16.90;99.90;;;;;;4989919;28;20027;-71
2021/07/05 05:33:29;;;;;;;3.55;1.20;;;16.90;99.90;;;;;;4990485;28;20029;-70
2021/07/05 05:35:55;;;;;;;2.28;1.30;;;16.90;99.90;;;;;;4990442;28;20022;-70
2021/07/05 05:38:21;;;;;;;3.33;1.17;;;16.90;99.90;;;;;;4990663;28;20105;-70
2021/07/05 05:40:46;;;;;;;2.03;1.10;;;16.70;99.90;;;;;;4989404;28;20109;-70
2021/07/05 05:43:12;;;;;;;3.72;1.98;;;16.60;99.90;;;;;;4990122;28;20595;-71
2021/07/05 05:45:38;;;;;;;6.10;2.35;;;16.70;99.90;;;;;;4989914;28;20018;-69
2021/07/05 05:48:05;;;;;;;2.72;1.45;;;16.70;99.90;;;;;;4989922;28;20022;-70
2021/07/05 05:50:30;;;;;;;5.45;1.80;;;16.70;99.90;;;;;;4988848;28;20073;-71
2021/07/05 05:52:56;;;;;;;5.90;2.35;;;16.70;99.90;;;;;;4990176;28;20030;-72
2021/07/05 05:55:22;;;;;;;3.30;1.80;;;16.90;99.90;;;;;;4993645;28;20057;-71
2021/07/05 05:57:47;;;;;;;5.03;1.70;;;16.70;99.90;;;;;;5084473;28;20032;-71
2021/07/05 06:00:19;;;;;;;2.00;1.23;;;16.60;99.90;;;;;;5091626;28;20059;-71
2021/07/05 06:02:45;;;;;;;7.10;1.40;;;16.60;99.90;;;;;;5010932;28;20536;-69
2021/07/05 06:05:11;;;;;;;6.95;1.92;;;16.50;99.90;;;;;;4989981;28;20019;-70
2021/07/05 06:07:37;;;;;;;9.88;1.88;;;16.30;99.90;;;;;;4989333;28;20037;-71
2021/07/05 06:10:04;;;;;;;7.68;1.70;;;16.30;99.90;;;;;;4989393;28;20447;-72
2021/07/05 06:12:30;;;;;;;6.53;1.73;;;16.30;99.90;;;;;;4990302;28;20022;-70
2021/07/05 06:14:56;;;;;;;4.72;1.88;;;16.20;99.90;;;;;;5003655;28;20046;-70
2021/07/05 06:17:22;;;;;;;6.40;1.98;;;16.20;99.90;;;;;;4976245;28;20027;-70
2021/07/05 06:19:48;;;;;;;3.75;1.35;;;16.20;99.90;;;;;;4961538;28;20099;-72
2021/07/05 06:22:17;;;;;;;6.75;1.70;;;16.30;99.90;;;;;;4990271;28;20071;-71
2021/07/05 06:24:47;;;;;;;2.55;1.45;;;16.30;99.90;;;;;;4977298;28;20098;-70
2021/07/05 06:27:15;;;;;;;3.42;2.10;;;16.40;99.90;;;;;;4970699;28;20389;-71
2021/07/05 06:29:40;;;;;;;9.18;1.73;;;16.40;99.90;;;;;;4985544;28;20026;-71
2021/07/05 06:32:06;;;;;;;2.45;1.67;;;16.40;99.90;;;;;;4989557;28;20400;-71
2021/07/05 06:34:32;;;;;;;7.13;2.20;;;16.70;99.90;;;;;;4989942;28;20026;-71
2021/07/05 06:36:58;;;;;;;4.35;1.52;;;16.80;99.90;;;;;;4988172;28;20519;-71
2021/07/05 06:39:24;;;;;;;5.72;1.75;;;16.90;99.90;;;;;;4988600;28;20109;-71
2021/07/05 06:41:49;;;;;;;5.60;1.77;;;17.00;99.90;;;;;;4989806;28;20097;-70
2021/07/05 06:44:15;;;;;;;4.07;2.10;;;17.00;99.90;;;;;;4989609;28;20049;-72
2021/07/05 06:46:41;;;;;;;2.33;1.55;;;17.20;99.90;;;;;;4989491;28;20052;-71
2021/07/05 06:49:08;;;;;;;6.47;1.83;;;17.20;99.90;;;;;;4989248;28;20444;-71
2021/07/05 06:51:34;;;;;;;7.25;2.22;;;17.40;99.90;;;;;;4988740;28;20403;-71
2021/07/05 06:53:59;;;;;;;4.43;1.70;;;17.50;99.90;;;;;;4989122;28;20031;-71
2021/07/05 06:56:25;;;;;;;3.17;1.50;;;17.50;99.90;;;;;;4989222;28;20034;-73
2021/07/05 06:58:51;;;;;;;1.88;1.50;;;17.40;99.90;;;;;;4989441;28;20032;-73
2021/07/05 07:01:16;;;;;;;5.60;1.70;;;17.20;99.90;;;;;;4988747;28;20058;-70
2021/07/05 07:03:42;;;;;;;2.30;1.52;;;17.30;99.90;;;;;;4989468;28;20473;-71
2021/07/05 07:06:08;;;;;;;7.20;1.80;;;17.20;99.90;;;;;;4991729;28;20026;-70
2021/07/05 07:08:33;;;;;;;1.52;1.30;;;17.30;99.90;;;;;;5009739;28;20023;-72
2021/07/05 07:10:59;;;;;;;2.67;1.92;;;17.30;99.90;;;;;;4988652;28;20043;-72
2021/07/05 07:13:24;;;;;;;4.45;1.75;;;17.30;99.90;;;;;;4988436;28;20534;-71
2021/07/05 07:15:57;;;;;;;1.55;1.25;;;17.40;99.90;;;;;;4988938;28;20030;-71
2021/07/05 07:20:55;;;;;;;2.35;1.42;;;17.60;99.90;;;;;;4988562;28;20137;-71
2021/07/05 07:23:21;;;;;;;1.75;1.50;;;17.60;99.90;;;;;;4988774;28;20484;-71
2021/07/05 07:25:47;;;;;;;1.88;1.45;;;17.60;99.90;;;;;;4988355;28;20110;-72
2021/07/05 07:28:13;;;;;;;4.00;1.65;;;17.90;99.90;;;;;;4988990;28;20384;-72
2021/07/05 07:30:38;;;;;;;4.70;1.40;;;18.00;99.90;;;;;;4990142;28;20109;-71
2021/07/05 07:33:04;;;;;;;5.35;1.50;;;18.30;99.90;;;;;;4992658;28;20083;-72
2021/07/05 07:35:30;;;;;;;2.60;1.35;;;18.10;99.90;;;;;;4992480;28;20499;-72
2021/07/05 07:37:56;;;;;;;2.22;1.23;;;18.10;99.90;;;;;;4992092;28;20039;-72
2021/07/05 07:40:23;;;;;;;2.40;1.30;;;18.00;99.90;;;;;;4990809;28;20105;-71
2021/07/05 07:42:49;;;;;;;2.00;1.38;;;17.90;99.90;;;;;;4992249;28;20029;-71
2021/07/05 07:45:16;;;;;;;5.22;1.63;;;18.00;99.90;;;;;;4992000;28;20097;-70
2021/07/05 07:47:43;;;;;;;4.20;1.42;;;18.20;99.90;;;;;;4992032;28;20100;-70
2021/07/05 07:50:11;;;;;;;2.65;1.25;;;18.40;99.90;;;;;;4991451;28;20030;-70
2021/07/05 07:52:37;;;;;;;2.85;1.30;;;18.50;99.90;;;;;;4992020;28;20094;-73
2021/07/05 07:55:08;;;;;;;6.78;1.40;;;18.20;99.90;;;;;;5006921;28;20395;-71
2021/07/05 07:57:35;;;;;;;6.05;1.60;;;18.30;99.90;;;;;;5012471;28;20105;-72
2021/07/05 08:00:01;;;;;;;1.35;1.20;;;18.30;99.90;;;;;;4999270;28;20471;-72
2021/07/05 08:02:27;;;;;;;4.03;1.35;;;18.30;99.90;;;;;;4992630;28;20038;-71
2021/07/05 08:04:52;;;;;;;4.95;1.80;;;18.30;99.90;;;;;;4991744;28;20030;-70
2021/07/05 08:07:18;;;;;;;2.20;1.42;;;18.60;99.90;;;;;;4991753;28;20422;-71
2021/07/05 08:09:44;;;;;;;3.10;1.50;;;18.60;99.90;;;;;;4990355;28;20026;-71
2021/07/05 08:12:11;;;;;;;4.00;1.20;;;18.80;99.90;;;;;;4974262;28;20095;-73
2021/07/05 08:14:37;;;;;;;2.33;1.52;;;18.90;99.90;;;;;;4991089;28;20026;-71
2021/07/05 08:17:03;;;;;;;1.58;1.48;;;19.00;99.90;;;;;;4991726;28;20033;-71
2021/07/05 08:19:29;;;;;;;1.33;1.23;;;18.60;99.90;;;;;;4989983;28;20598;-70
2021/07/05 08:21:54;;;;;;;1.85;1.45;;;18.60;99.90;;;;;;4991568;28;20079;-70
2021/07/05 08:24:20;;;;;;;4.30;1.35;;;18.70;99.90;;;;;;4991280;28;20054;-71
2021/07/05 08:26:45;;;;;;;3.33;1.33;;;18.60;99.90;;;;;;4991373;28;20023;-70
2021/07/05 08:29:11;;;;;;;1.73;1.30;;;18.50;99.90;;;;;;4991574;28;20446;-70
2021/07/05 08:31:37;;;;;;;3.22;1.60;;;18.60;99.90;;;;;;4990790;28;20034;-71
2021/07/05 08:34:03;;;;;;;4.32;1.27;;;18.80;99.90;;;;;;4990725;28;20106;-71
2021/07/05 08:36:29;;;;;;;2.22;1.42;;;18.90;99.90;;;;;;4990618;28;20041;-71
2021/07/05 08:38:55;;;;;;;2.50;1.13;;;18.60;99.90;;;;;;4991352;28;20027;-70
2021/07/05 08:41:21;;;;;;;4.38;1.65;;;18.50;99.90;;;;;;4990345;28;20487;-69
2021/07/05 08:43:48;;;;;;;4.00;1.70;;;18.60;99.90;;;;;;4990599;28;20022;-71
2021/07/05 08:46:17;;;;;;;3.38;1.45;;;18.50;99.90;;;;;;4991118;28;20027;-71
2021/07/05 08:48:44;;;;;;;3.63;1.55;;;18.40;99.90;;;;;;4990918;28;20072;-71
2021/07/05 08:51:18;;;;;;;5.22;1.40;;;18.50;99.90;;;;;;4989726;28;20467;-71
2021/07/05 08:53:44;;;;;;;2.95;1.95;;;18.50;99.90;;;;;;4991126;28;20476;-70
2021/07/05 08:56:10;;;;;;;1.52;1.42;;;18.60;99.90;;;;;;4990439;28;20067;-70
2021/07/05 08:58:36;;;;;;;2.25;1.27;;;18.90;99.90;;;;;;4991010;28;20093;-72
2021/07/05 09:01:02;;;;;;;2.80;1.10;;;18.80;99.90;;;;;;4990785;28;20101;-72
2021/07/05 09:03:30;;;;;;;2.05;0.98;;;18.90;99.90;;;;;;4997404;28;20033;-72
2021/07/05 09:06:14;;;;;;;2.65;1.10;;;18.80;99.90;;;;;;4990413;28;20534;-72
2021/07/05 09:09:00;;;;;;;0.55;0.55;;;18.50;99.90;;;;;;4973357;28;20019;-72
2021/07/05 09:11:48;;;;;;;2.08;0.68;;;18.60;99.90;;;;;;4992164;28;20133;-70
2021/07/05 09:14:24;;;;;;;2.28;0.80;;;18.70;99.90;;;;;;4990799;28;20022;-70
2021/07/05 09:16:52;;;;;;;1.63;0.47;;;18.60;99.90;;;;;;4990618;28;20026;-70
2021/07/05 09:19:32;;;;;;;0.40;0.40;;;18.60;99.90;;;;;;4990179;28;20030;-72
2021/07/05 09:22:03;;;;;;;7.97;0.65;;;18.60;99.90;;;;;;4990720;28;20030;-70
2021/07/05 09:24:42;;;;;;;2.13;0.70;;;18.60;99.90;;;;;;4989329;28;20094;-70
2021/07/05 09:27:20;;;;;;;0.95;0.60;;;18.70;99.90;;;;;;4990570;28;20369;-70
2021/07/05 09:29:46;;;;;;;1.00;0.55;;;18.50;99.90;;;;;;4990071;28;20018;-72
2021/07/05 09:32:23;;;;;;;1.05;0.65;;;18.20;99.90;;;;;;4990495;28;20037;-72
2021/07/05 09:34:49;;;;;;;0.93;0.60;;;18.20;99.90;;;;;;4973092;28;20445;-72
2021/07/05 09:37:22;;;;;;;1.27;0.60;;;18.40;99.90;;;;;;5002310;23;20046;-70
2021/07/05 09:40:03;;;;;;;0.38;0.35;;;18.30;99.90;;;;;;4977901;28;20019;-70
2021/07/05 09:42:33;;;;;;;0.30;0.30;;;18.60;99.90;;;;;;4970977;28;20086;-71
2021/07/05 09:45:00;;;;;;;0.93;0.50;;;18.60;99.90;;;;;;4970790;28;20034;-72
2021/07/05 09:47:26;;;;;;;0.40;0.40;;;18.50;99.90;;;;;;4987925;28;20026;-71
2021/07/05 09:49:54;;;;;;;1.65;0.60;;;18.50;99.90;;;;;;4989211;28;20022;-70
2021/07/05 09:52:26;;;;;;;2.15;0.50;;;18.40;99.90;;;;;;4989408;28;20506;-71
2021/07/05 09:54:57;;;;;;;3.55;0.70;;;18.60;99.90;;;;;;4989758;28;20037;-71
2021/07/05 09:57:39;;;;;;;0.70;0.70;;;18.50;99.90;;;;;;4989989;28;20027;-70
2021/07/05 10:00:08;;;;;;;3.00;0.90;;;18.70;99.90;;;;;;4989244;28;20038;-71
2021/07/05 10:02:35;;;;;;;7.07;0.70;;;18.50;99.90;;;;;;4972044;28;20865;-71
2021/07/05 10:05:12;;;;;;;1.52;0.57;;;18.40;99.90;;;;;;4989611;28;20397;-74
2021/07/05 10:07:37;;;;;;;5.10;0.57;;;18.70;99.90;;;;;;4990295;28;20369;-76
2021/07/05 10:10:16;;;;;;;0.70;0.50;;;19.00;99.90;;;;;;4989096;28;20045;-73
2021/07/05 10:12:58;;;;;;;1.30;0.70;;;19.20;99.90;;;;;;4989970;28;20467;-74
2021/07/05 10:15:25;;;;;;;0.73;0.55;;;19.00;99.90;;;;;;4970972;28;20027;-74
2021/07/05 10:17:53;;;;;;;0.77;0.57;;;19.10;99.90;;;;;;4988729;28;20489;-75
2021/07/05 10:20:31;;;;;;;3.35;0.60;;;19.50;99.90;;;;;;4971232;28;20027;-74
2021/07/05 10:22:59;;;;;;;2.13;0.50;;;19.60;99.90;;;;;;4986348;28;20019;-74
2021/07/05 10:25:27;;;;;;;1.70;0.70;;;19.60;99.90;;;;;;4970322;28;20019;-74
2021/07/05 10:27:54;;;;;;;0.80;0.70;;;19.70;99.90;;;;;;4953217;28;20022;-74
2021/07/05 10:30:22;;;;;;;1.42;0.50;;;20.00;99.90;;;;;;4952408;28;20035;-74
2021/07/05 10:32:48;;;;;;;3.72;0.88;;;20.00;99.90;;;;;;4970009;28;20100;-74
2021/07/05 10:35:17;;;;;;;1.65;0.70;;;19.90;99.90;;;;;;4970062;28;20031;-75
2021/07/05 10:37:59;;;;;;;1.15;0.52;;;20.10;99.90;;;;;;4970572;28;20092;-74
2021/07/05 10:40:26;;;;;;;;;;;20.20;99.90;;;;;;4970192;28;20093;-75
2021/07/05 10:42:57;;;;;;;0.77;0.45;;;20.00;99.90;;;;;;4970273;28;20390;-75
2021/07/05 10:45:38;;;;;;;1.27;0.60;;;20.30;99.90;;;;;;4983499;28;20099;-73
2021/07/05 10:48:04;;;;;;;1.10;0.57;;;20.70;99.90;;;;;;4989908;28;20050;-75
2021/07/05 10:50:41;;;;;;;0.93;0.50;;;21.10;99.90;;;;;;4971577;28;20065;-75
2021/07/05 10:53:11;;;;;;;0.65;0.50;;;21.70;99.90;;;;;;4972634;28;20078;-76
2021/07/05 10:55:57;;;;;;;0.82;0.60;;;22.00;99.90;;;;;;4990631;28;20083;-77
2021/07/05 10:58:26;;;;;;;4.25;0.50;;;21.50;99.90;;;;;;4989565;28;20053;-73
2021/07/05 11:00:57;;;;;;;1.98;0.47;;;21.40;99.90;;;;;;4971525;28;20079;-75
2021/07/05 11:03:38;;;;;;;0.52;0.47;;;21.30;99.90;;;;;;4989916;28;20476;-74
2021/07/05 11:06:10;;;;;;;1.38;0.50;;;21.10;99.90;;;;;;4989805;28;20582;-75
2021/07/05 11:08:44;;;;;;;1.85;0.60;;;21.00;99.90;;;;;;4989759;28;20034;-73
2021/07/05 11:11:25;;;;;;;0.60;0.60;;;20.80;99.90;;;;;;4989116;28;20026;-75
2021/07/05 11:14:09;;;;;;;2.22;0.50;;;20.60;99.90;;;;;;4988610;28;20384;-75
2021/07/05 11:17:02;;;;;;;1.38;0.77;;;20.10;99.90;;;;;;4989471;28;20049;-73
2021/07/05 11:19:47;;;;;;;1.98;0.80;;;20.00;99.90;;;;;;4989020;28;20038;-76
2021/07/05 11:22:21;;;;;;;2.42;0.80;;;20.00;99.90;;;;;;4971984;28;20033;-75
2021/07/05 11:25:18;;;;;;;0.95;0.82;;;20.00;99.90;;;;;;4989096;28;20068;-75
2021/07/05 11:27:54;;;;;;;1.58;1.10;;;19.80;99.90;;;;;;4972596;28;20023;-72
2021/07/05 11:30:28;;;;;;;2.35;0.82;;;19.90;99.90;;;;;;4987895;28;20498;-72
2021/07/05 11:32:58;;;;;;;1.73;0.70;;;20.40;99.90;;;;;;4972753;28;20467;-72
2021/07/05 11:35:41;;;;;;;4.93;0.70;;;20.90;99.90;;;;;;4989223;28;20030;-73
2021/07/05 11:38:09;;;;;;;;;;;21.70;99.90;;;;;;4989487;28;20037;-73
2021/07/05 11:40:52;;;;;;;0.70;0.70;;;22.20;99.90;;;;;;4988828;28;19918;-73
2021/07/05 11:43:40;;;;;;;0.80;0.80;;;21.00;99.90;;;;;;4988985;28;20023;-73
2021/07/05 11:46:07;;;;;;;1.10;0.80;;;21.00;99.90;;;;;;4979527;28;20076;-73
2021/07/05 11:48:38;;;;;;;2.33;0.95;;;21.20;99.90;;;;;;4998735;28;20543;-71
2021/07/05 11:51:23;;;;;;;4.05;0.90;;;21.40;99.90;;;;;;4988629;28;20026;-71
2021/07/05 11:53:56;;;;;;;4.10;0.75;;;21.70;99.90;;;;;;4989331;28;20069;-71
2021/07/05 11:56:36;;;;;;;2.22;0.77;;;21.40;99.90;;;;;;4989923;28;20101;-72
2021/07/05 11:59:05;;;;;;;4.70;1.00;;;21.20;99.90;;;;;;4988051;28;20027;-72
2021/07/05 12:01:32;;;;;;;2.78;0.95;;;21.10;99.90;;;;;;4969288;28;20381;-72
2021/07/05 12:03:59;;;;;;;7.55;1.33;;;21.40;99.90;;;;;;4969816;28;20023;-71
2021/07/05 12:06:26;;;;;;;3.22;0.90;;;21.10;99.90;;;;;;4969444;28;20427;-72
2021/07/05 12:08:57;;;;;;;6.03;0.70;;;21.20;99.90;;;;;;4969172;28;20650;-72
2021/07/05 12:11:44;;;;;;;4.43;0.82;;;21.40;99.90;;;;;;4974458;28;20026;-72
2021/07/05 12:14:16;;;;;;;4.65;1.42;;;21.60;99.90;;;;;;4988313;28;20031;-73
2021/07/05 12:16:58;;;;;;;0.75;0.70;;;21.60;99.90;;;;;;4990430;28;20038;-71
2021/07/05 12:19:27;;;;;;;1.52;0.70;;;21.70;99.90;;;;;;4989984;28;20072;-72
2021/07/05 12:21:55;;;;;;;5.75;0.75;;;21.40;99.90;;;;;;4991544;28;20026;-71
2021/07/05 12:24:22;;;;;;;0.73;0.70;;;21.70;99.90;;;;;;4992080;28;20042;-71
2021/07/05 12:26:54;;;;;;;2.75;0.55;;;21.80;99.90;;;;;;4991556;28;20027;-72
2021/07/05 12:29:28;;;;;;;2.85;0.65;;;21.40;99.90;;;;;;4991739;28;20026;-72
2021/07/05 12:31:56;;;;;;;1.65;0.70;;;21.50;99.90;;;;;;4991482;28;20061;-71
2021/07/05 12:34:48;;;;;;;3.53;1.08;;;21.80;99.90;;;;;;4991614;28;20097;-71
2021/07/05 12:37:34;;;;;;;0.63;0.63;;;21.90;99.90;;;;;;4991546;28;20040;-72
2021/07/05 12:40:04;;;;;;;0.60;0.47;;;21.70;99.90;;;;;;4990127;28;20042;-72
2021/07/05 12:42:51;;;;;;;0.88;0.70;;;21.70;99.90;;;;;;4991230;28;20018;-72
2021/07/05 12:45:18;;;;;;;0.60;0.60;;;21.90;99.90;;;;;;4991402;28;20015;-72
2021/07/05 12:48:23;;;;;;;3.28;0.60;;;21.70;99.90;;;;;;4991316;28;20037;-72
2021/07/05 12:50:56;;;;;;;0.80;0.60;;;22.10;99.90;;;;;;4992098;28;20408;-71
2021/07/05 12:53:24;;;;;;;1.85;0.50;;;22.70;99.90;;;;;;4991253;28;20423;-71
2021/07/05 12:55:54;;;;;;;0.52;0.52;;;22.80;99.90;;;;;;4990634;28;20033;-71
2021/07/05 12:58:41;;;;;;;2.10;0.40;;;23.10;99.90;;;;;;4990623;28;20029;-71